Chemehuevi Valley, California
Current Conditions -  °F | °C
As of 12:56 AM on Monday 20 Oct 2014 (Local Time) from KEED Reporting Station
Clear Clear  
Wind Chill: 73°   Ceiling: Unl
Heat Index: 73°   Visibility: 10mi
Dew Point: 40°   Wind: 7mph
Humidity: 30%   Direction: 310°NW
Pressure: 29.83"   Gusts: NA
Location:  34.5025°N, 114.671°W
Report Text: KEED 200856Z AUTO 31006KT 10SM CLR 23/04 A2983 RMK AO2 SLP071 T02280044 53007
Loading
Personal Weather Stations






























Interactive Weather Map
Tropical Storm Tracking
New forecast layout! Learn more

10-Day Weather Forecast

Advertisements
Track Severe Weather on mobile